Time;durP1;ratioP1;P1;durP2;ratioP2;P2;SDS_P1;SDS_P2;PMS_P1;PMS_P2;Temp;Humidity;BMP_temperature;BMP_pressure;BME280_temperature;BME280_humidity;BME280_pressure;Samples;Min_cycle;Max_cycle;Signal;HPM_P1;HPM_P2
2023/08/13 00:01:50;;;;;;;15.50;10.90;;;14.40;99.90;;;;;;5071284;28;20024;-81
2023/08/13 00:04:16;;;;;;;8.70;7.88;;;14.30;99.90;;;;;;5071339;28;20158;-81
2023/08/13 00:06:41;;;;;;;6.72;6.10;;;14.30;99.90;;;;;;5069813;28;20474;-81
2023/08/13 00:09:07;;;;;;;6.65;6.03;;;14.20;99.90;;;;;;5070711;28;20170;-80
2023/08/13 00:11:32;;;;;;;7.53;6.82;;;14.20;99.90;;;;;;5072479;28;20103;-81
2023/08/13 00:13:58;;;;;;;8.18;7.38;;;14.20;99.90;;;;;;5070552;28;20135;-81
2023/08/13 00:16:24;;;;;;;9.32;8.40;;;14.20;99.90;;;;;;5071379;28;20078;-82
2023/08/13 00:18:49;;;;;;;9.82;8.82;;;14.10;99.90;;;;;;5072393;28;20377;-81
2023/08/13 00:21:15;;;;;;;10.50;8.55;;;14.20;99.90;;;;;;5072620;28;20389;-82
2023/08/13 00:23:41;;;;;;;10.73;8.43;;;14.20;99.90;;;;;;5071944;28;20029;-81
2023/08/13 00:26:06;;;;;;;11.88;8.45;;;14.10;99.90;;;;;;5072377;28;20386;-82
2023/08/13 00:28:32;;;;;;;10.95;8.85;;;14.10;99.90;;;;;;5072010;28;20048;-80
2023/08/13 00:30:58;;;;;;;9.30;7.95;;;14.20;99.90;;;;;;5067911;28;20064;-81
2023/08/13 00:33:23;;;;;;;8.68;7.88;;;14.10;99.90;;;;;;5065996;28;20017;-81
2023/08/13 00:35:50;;;;;;;10.02;8.43;;;14.10;99.90;;;;;;5075211;28;20394;-81
2023/08/13 00:38:15;;;;;;;10.07;7.93;;;14.10;99.90;;;;;;5074810;28;20020;-80
2023/08/13 00:40:41;;;;;;;9.15;8.10;;;14.10;99.90;;;;;;5074773;28;20013;-81
2023/08/13 00:43:07;;;;;;;9.98;8.15;;;14.10;99.90;;;;;;5076154;28;20024;-81
2023/08/13 00:45:35;;;;;;;9.05;7.75;;;14.10;99.90;;;;;;5076026;28;20406;-82
2023/08/13 00:48:01;;;;;;;8.95;8.15;;;14.10;99.90;;;;;;5074749;28;20039;-81
2023/08/13 00:50:28;;;;;;;10.02;7.97;;;14.10;99.90;;;;;;5074544;28;20032;-81
2023/08/13 00:52:53;;;;;;;7.70;6.82;;;14.10;99.90;;;;;;5076203;28;20025;-81
2023/08/13 00:55:19;;;;;;;6.78;6.18;;;14.00;99.90;;;;;;5075833;28;20130;-82
2023/08/13 00:57:45;;;;;;;10.25;6.50;;;13.90;99.90;;;;;;5076140;28;20376;-81
2023/08/13 01:00:12;;;;;;;7.85;7.10;;;13.90;99.90;;;;;;5076010;28;20028;-80
2023/08/13 01:02:38;;;;;;;7.65;6.93;;;13.80;99.90;;;;;;5074546;28;20021;-80
2023/08/13 01:05:05;;;;;;;8.40;7.47;;;13.90;99.90;;;;;;5074274;28;20070;-78
2023/08/13 01:07:52;;;;;;;9.40;6.78;;;13.90;99.90;;;;;;5074461;28;20016;-78
2023/08/13 01:10:35;;;;;;;9.25;7.45;;;13.90;99.90;;;;;;5075507;28;20481;-78
2023/08/13 01:13:08;;;;;;;9.02;7.35;;;14.00;99.90;;;;;;5075388;28;21458;-80
2023/08/13 01:15:38;;;;;;;8.38;7.45;;;14.00;99.90;;;;;;5073968;28;20044;-79
2023/08/13 01:18:05;;;;;;;8.77;7.88;;;14.00;99.90;;;;;;5075898;28;20024;-80
2023/08/13 01:20:37;;;;;;;9.30;7.78;;;14.10;99.90;;;;;;5075478;28;20027;-79
2023/08/13 01:23:02;;;;;;;12.30;8.25;;;14.10;99.90;;;;;;5073842;28;20608;-80
2023/08/13 01:25:29;;;;;;;7.65;6.95;;;14.10;99.90;;;;;;5074227;28;20016;-80
2023/08/13 01:28:13;;;;;;;10.20;7.03;;;14.10;99.90;;;;;;5075185;28;20432;-80
2023/08/13 01:30:45;;;;;;;7.03;6.35;;;14.10;99.90;;;;;;5074052;28;20040;-80
2023/08/13 01:33:19;;;;;;;10.18;7.45;;;14.10;99.90;;;;;;5075188;28;20016;-80
2023/08/13 01:35:46;;;;;;;9.45;8.32;;;14.20;99.90;;;;;;5073930;28;20070;-79
2023/08/13 01:38:13;;;;;;;11.65;7.40;;;14.10;99.90;;;;;;5073891;28;20028;-79
2023/08/13 01:40:39;;;;;;;13.20;8.15;;;14.10;99.90;;;;;;5074858;28;20501;-79
2023/08/13 01:43:04;;;;;;;10.20;8.55;;;14.10;99.90;;;;;;5074749;28;20048;-79
2023/08/13 01:45:30;;;;;;;10.77;8.63;;;14.10;99.90;;;;;;5073545;28;20026;-79
2023/08/13 01:47:56;;;;;;;9.43;7.30;;;14.20;99.90;;;;;;5075006;28;20021;-80
2023/08/13 01:50:22;;;;;;;9.57;7.88;;;14.10;99.90;;;;;;5073514;28;20059;-80
2023/08/13 01:52:48;;;;;;;10.52;7.90;;;14.20;99.90;;;;;;5073746;28;20025;-79
2023/08/13 01:55:14;;;;;;;8.23;7.43;;;14.20;99.90;;;;;;5074733;28;20496;-79
2023/08/13 01:57:39;;;;;;;9.23;8.30;;;14.20;99.90;;;;;;5074784;28;20035;-79
2023/08/13 02:00:07;;;;;;;8.52;7.70;;;14.20;99.90;;;;;;5073332;28;20027;-79
2023/08/13 02:02:34;;;;;;;7.68;6.85;;;14.20;99.90;;;;;;5073579;28;20027;-80
2023/08/13 02:05:00;;;;;;;10.50;7.78;;;14.20;99.90;;;;;;5073164;28;20025;-80
2023/08/13 02:07:26;;;;;;;9.52;8.35;;;14.20;99.90;;;;;;5074596;28;20017;-79
2023/08/13 02:09:51;;;;;;;8.77;7.97;;;14.10;99.90;;;;;;5074228;28;20029;-80
2023/08/13 02:12:17;;;;;;;8.88;7.93;;;14.00;99.90;;;;;;5073375;28;20021;-79
2023/08/13 02:14:43;;;;;;;8.60;7.80;;;14.00;99.90;;;;;;5074045;28;20406;-80
2023/08/13 02:17:14;;;;;;;9.82;8.25;;;14.00;99.90;;;;;;5073045;28;20027;-79
2023/08/13 02:19:40;;;;;;;8.02;7.13;;;14.00;99.90;;;;;;5074201;28;20028;-79
2023/08/13 02:22:06;;;;;;;10.40;9.30;;;13.90;99.90;;;;;;5073218;28;20067;-79
2023/08/13 02:24:32;;;;;;;9.48;7.90;;;13.90;99.90;;;;;;5074184;28;20094;-79
2023/08/13 02:26:57;;;;;;;10.85;8.25;;;13.90;99.90;;;;;;5072961;28;20025;-78
2023/08/13 02:29:23;;;;;;;8.52;7.72;;;13.90;99.90;;;;;;5073852;28;20033;-80
2023/08/13 02:31:48;;;;;;;8.80;7.90;;;13.90;99.90;;;;;;5072904;28;20029;-78
2023/08/13 02:34:14;;;;;;;9.40;8.48;;;13.90;99.90;;;;;;5073733;28;20024;-80
2023/08/13 02:36:40;;;;;;;8.98;8.07;;;13.90;99.90;;;;;;5074199;28;20052;-79
2023/08/13 02:39:06;;;;;;;9.15;7.40;;;13.90;99.90;;;;;;5072340;28;20027;-79
2023/08/13 02:41:32;;;;;;;8.63;7.72;;;13.90;99.90;;;;;;5074016;28;20021;-79
2023/08/13 02:43:58;;;;;;;9.82;8.07;;;13.90;99.90;;;;;;5073644;28;20027;-79
2023/08/13 02:46:25;;;;;;;8.93;8.02;;;14.00;99.90;;;;;;5074040;28;20113;-80
2023/08/13 02:48:54;;;;;;;8.88;8.07;;;13.90;99.90;;;;;;5072026;28;20020;-79
2023/08/13 02:51:20;;;;;;;8.98;8.07;;;13.90;99.90;;;;;;5072628;28;20035;-80
2023/08/13 02:53:46;;;;;;;9.90;8.98;;;13.90;99.90;;;;;;5072928;28;20032;-79
2023/08/13 02:56:12;;;;;;;9.60;7.80;;;13.80;99.90;;;;;;5072331;28;20389;-79
2023/08/13 02:58:37;;;;;;;8.75;7.55;;;13.80;99.90;;;;;;5072310;28;20013;-80
2023/08/13 03:01:03;;;;;;;9.23;8.00;;;13.80;99.90;;;;;;5073727;28;20048;-80
2023/08/13 03:03:29;;;;;;;10.90;8.48;;;13.80;99.90;;;;;;5072101;28;20113;-80
2023/08/13 03:05:55;;;;;;;11.77;8.57;;;13.80;99.90;;;;;;5073568;28;20104;-81
2023/08/13 03:08:21;;;;;;;9.52;7.97;;;13.80;99.90;;;;;;5073355;28;20059;-80
2023/08/13 03:10:47;;;;;;;8.65;6.95;;;13.80;99.90;;;;;;5073289;28;20116;-80
2023/08/13 03:13:12;;;;;;;8.10;7.40;;;13.80;99.90;;;;;;5071983;28;20075;-80
2023/08/13 03:15:38;;;;;;;8.00;7.20;;;13.80;99.90;;;;;;5072243;28;20045;-80
2023/08/13 03:18:04;;;;;;;11.15;8.23;;;13.80;99.90;;;;;;5071909;28;20020;-80
2023/08/13 03:20:30;;;;;;;9.25;7.07;;;13.80;99.90;;;;;;5073446;28;20036;-80
2023/08/13 03:22:56;;;;;;;8.38;7.13;;;13.80;99.90;;;;;;5071659;28;20032;-79
2023/08/13 03:25:21;;;;;;;8.43;7.05;;;13.80;99.90;;;;;;5071840;28;20021;-80
2023/08/13 03:27:48;;;;;;;8.20;7.40;;;13.80;99.90;;;;;;5071805;28;20024;-80
2023/08/13 03:30:14;;;;;;;8.13;7.32;;;13.70;99.90;;;;;;5072686;28;20047;-80
2023/08/13 03:32:43;;;;;;;10.63;8.07;;;13.70;99.90;;;;;;5071890;28;20028;-81
2023/08/13 03:35:09;;;;;;;8.45;7.68;;;13.80;99.90;;;;;;5072891;28;20024;-80
2023/08/13 03:37:34;;;;;;;10.90;8.07;;;13.70;99.90;;;;;;5071796;28;20013;-80
2023/08/13 03:40:00;;;;;;;10.38;7.70;;;13.70;99.90;;;;;;5071273;28;20031;-80
2023/08/13 03:42:25;;;;;;;8.55;7.63;;;13.70;99.90;;;;;;5073154;28;20021;-80
2023/08/13 03:44:51;;;;;;;8.63;7.63;;;13.70;99.90;;;;;;5072569;28;20382;-79
2023/08/13 03:47:17;;;;;;;8.82;7.22;;;13.70;99.90;;;;;;5073045;28;20021;-81
2023/08/13 03:49:42;;;;;;;9.00;8.18;;;13.70;99.90;;;;;;5072628;28;20039;-79
2023/08/13 03:52:11;;;;;;;13.45;8.18;;;13.70;99.90;;;;;;5078110;28;20533;-79
2023/08/13 03:54:36;;;;;;;8.57;7.78;;;13.60;99.90;;;;;;5071904;28;20093;-78
2023/08/13 03:57:02;;;;;;;7.90;6.40;;;13.60;99.90;;;;;;5071610;28;20509;-79
2023/08/13 03:59:28;;;;;;;5.60;5.07;;;13.60;99.90;;;;;;5071203;28;20024;-79
2023/08/13 04:01:53;;;;;;;5.78;5.28;;;13.50;99.90;;;;;;5071261;28;20020;-80
2023/08/13 04:04:19;;;;;;;7.35;5.80;;;13.50;99.90;;;;;;5071340;28;20036;-79
2023/08/13 04:06:45;;;;;;;7.60;6.63;;;13.50;99.90;;;;;;5071282;28;20027;-79
2023/08/13 04:09:11;;;;;;;7.32;6.43;;;13.60;99.90;;;;;;5071141;28;20033;-80
2023/08/13 04:11:36;;;;;;;8.80;8.00;;;13.70;99.90;;;;;;5071460;28;20062;-80
2023/08/13 04:14:02;;;;;;;7.50;6.80;;;13.90;99.90;;;;;;5072234;28;20071;-80
2023/08/13 04:16:28;;;;;;;6.35;5.75;;;14.00;99.90;;;;;;5071047;28;20035;-79
2023/08/13 04:18:54;;;;;;;7.55;6.85;;;14.10;99.90;;;;;;5071172;28;20027;-80
2023/08/13 04:21:19;;;;;;;9.77;6.70;;;14.20;99.90;;;;;;5071213;28;20074;-80
2023/08/13 04:23:45;;;;;;;6.63;5.97;;;14.40;99.90;;;;;;5072497;28;20043;-80
2023/08/13 04:26:11;;;;;;;5.72;5.22;;;14.50;99.90;;;;;;5072299;28;20029;-81
2023/08/13 04:28:37;;;;;;;5.88;5.30;;;14.60;99.90;;;;;;5071125;28;20427;-81
2023/08/13 04:31:02;;;;;;;5.40;4.60;;;14.70;99.90;;;;;;5072189;28;20040;-79
2023/08/13 04:33:28;;;;;;;5.60;5.10;;;14.80;99.90;;;;;;5066107;28;20371;-79
2023/08/13 04:35:54;;;;;;;6.80;6.20;;;14.90;99.90;;;;;;5067691;28;20043;-81
2023/08/13 04:38:21;;;;;;;6.72;5.80;;;15.10;99.90;;;;;;5072481;28;20036;-79
2023/08/13 04:40:47;;;;;;;6.88;6.15;;;15.20;99.90;;;;;;5072214;28;20013;-80
2023/08/13 04:43:14;;;;;;;8.43;6.45;;;15.40;99.90;;;;;;5070905;28;20082;-81
2023/08/13 04:45:39;;;;;;;6.55;5.78;;;15.60;99.90;;;;;;5070778;28;20086;-83
2023/08/13 04:48:05;;;;;;;7.15;5.75;;;15.80;99.90;;;;;;5072360;28;20025;-83
2023/08/13 04:50:32;;;;;;;6.32;5.72;;;16.00;99.90;;;;;;5072291;28;20032;-81
2023/08/13 04:52:58;;;;;;;7.85;7.10;;;16.20;99.90;;;;;;5071835;28;20052;-81
2023/08/13 04:55:23;;;;;;;7.22;6.18;;;16.30;99.90;;;;;;5070937;28;20466;-83
2023/08/13 04:57:49;;;;;;;7.88;7.18;;;16.50;99.90;;;;;;5070625;28;20024;-82
2023/08/13 05:00:15;;;;;;;6.53;5.75;;;16.70;99.90;;;;;;5072141;28;20017;-82
2023/08/13 05:02:41;;;;;;;6.78;6.07;;;16.90;99.90;;;;;;5070867;28;20360;-82
2023/08/13 05:05:07;;;;;;;8.77;7.93;;;17.20;99.90;;;;;;5070760;28;20066;-81
2023/08/13 05:07:32;;;;;;;8.82;8.00;;;17.40;99.90;;;;;;5072131;28;20077;-82
2023/08/13 05:09:58;;;;;;;9.82;7.90;;;17.60;99.90;;;;;;5070531;28;20036;-82
2023/08/13 05:12:24;;;;;;;11.68;8.88;;;17.90;99.90;;;;;;5070757;28;20527;-81
2023/08/13 05:14:49;;;;;;;11.43;9.25;;;18.10;99.90;;;;;;5070514;28;20132;-81
2023/08/13 05:17:22;;;;;;;14.18;10.35;;;18.30;99.90;;;;;;5073464;28;20020;-81
2023/08/13 05:19:48;;;;;;;12.65;10.45;;;18.40;99.90;;;;;;5074166;28;20504;-83
2023/08/13 05:22:14;;;;;;;13.80;9.45;;;18.50;99.90;;;;;;5074311;28;20028;-81
2023/08/13 05:24:40;;;;;;;12.95;9.07;;;18.70;99.90;;;;;;5075476;28;20105;-83
2023/08/13 05:27:05;;;;;;;11.32;9.07;;;18.90;99.90;;;;;;5074275;28;20025;-81
2023/08/13 05:29:31;;;;;;;11.40;8.77;;;19.00;99.90;;;;;;5074850;28;20052;-79
2023/08/13 05:31:57;;;;;;;10.45;9.30;;;19.10;99.90;;;;;;5075441;28;20031;-80
2023/08/13 05:34:22;;;;;;;9.05;8.15;;;19.20;99.90;;;;;;5074900;28;20024;-81
2023/08/13 05:36:48;;;;;;;10.75;9.05;;;19.30;99.90;;;;;;5075381;28;20115;-82
2023/08/13 05:39:13;;;;;;;11.02;9.05;;;19.30;99.90;;;;;;5075168;28;20067;-80
2023/08/13 05:41:39;;;;;;;9.93;8.90;;;19.40;99.90;;;;;;5073981;28;20017;-81
2023/08/13 05:44:05;;;;;;;9.88;8.82;;;19.40;99.90;;;;;;5073718;28;20058;-80
2023/08/13 05:46:30;;;;;;;12.65;9.15;;;19.50;99.90;;;;;;5075219;28;20489;-81
2023/08/13 05:48:56;;;;;;;13.25;9.38;;;19.50;99.90;;;;;;5074830;28;20029;-80
2023/08/13 05:51:22;;;;;;;11.15;9.23;;;19.50;99.90;;;;;;5060127;28;20075;-80
2023/08/13 05:53:48;;;;;;;11.38;8.85;;;19.40;99.90;;;;;;5074953;28;20021;-82
2023/08/13 05:56:13;;;;;;;12.30;9.38;;;19.50;99.90;;;;;;5074741;28;20024;-80
2023/08/13 05:58:39;;;;;;;14.40;10.25;;;19.50;99.90;;;;;;5075046;28;20052;-81
2023/08/13 06:01:04;;;;;;;11.23;9.98;;;19.50;99.90;;;;;;5073928;28;20431;-80
2023/08/13 06:03:30;;;;;;;12.25;10.90;;;19.50;99.90;;;;;;5073523;28;20020;-79
2023/08/13 06:05:56;;;;;;;12.73;10.07;;;19.60;99.90;;;;;;5074882;28;20094;-81
2023/08/13 06:08:22;;;;;;;11.43;10.18;;;19.60;99.90;;;;;;5075038;28;20021;-79
2023/08/13 06:10:48;;;;;;;11.00;9.73;;;19.60;99.90;;;;;;5074521;28;20040;-80
2023/08/13 06:13:13;;;;;;;11.43;9.65;;;19.60;99.90;;;;;;5074807;28;20025;-81
2023/08/13 06:15:39;;;;;;;10.98;9.82;;;19.70;99.90;;;;;;5070839;28;20383;-80
2023/08/13 06:18:05;;;;;;;12.93;9.63;;;19.80;99.90;;;;;;5071935;28;20393;-80
2023/08/13 06:20:31;;;;;;;10.90;9.43;;;19.80;99.90;;;;;;5073848;28;20032;-81
2023/08/13 06:22:57;;;;;;;10.15;9.15;;;19.80;99.90;;;;;;5072924;28;20031;-81
2023/08/13 06:25:22;;;;;;;15.48;9.93;;;19.90;99.90;;;;;;5075834;28;20016;-81
2023/08/13 06:27:48;;;;;;;8.27;7.43;;;20.00;99.90;;;;;;5073386;28;20063;-81
2023/08/13 06:30:14;;;;;;;8.40;7.60;;;20.00;99.90;;;;;;5071521;28;20036;-78
2023/08/13 06:32:39;;;;;;;10.82;8.05;;;20.00;99.90;;;;;;5071198;28;20051;-79
2023/08/13 06:35:05;;;;;;;9.40;7.80;;;20.00;99.90;;;;;;5072564;28;20016;-79
2023/08/13 06:37:31;;;;;;;7.45;6.85;;;20.10;99.90;;;;;;5072462;28;20031;-79
2023/08/13 06:39:56;;;;;;;7.75;6.95;;;20.20;99.90;;;;;;5071769;28;20021;-79
2023/08/13 06:42:23;;;;;;;7.38;6.70;;;20.30;99.90;;;;;;5072872;28;20040;-80
2023/08/13 06:44:49;;;;;;;8.85;7.47;;;20.40;99.90;;;;;;5072276;28;20020;-80
2023/08/13 06:47:14;;;;;;;7.85;7.18;;;20.50;99.90;;;;;;5071714;28;20397;-82
2023/08/13 06:49:40;;;;;;;8.30;7.60;;;20.60;99.90;;;;;;5072208;28;20028;-81
2023/08/13 06:52:06;;;;;;;7.88;6.97;;;20.70;99.90;;;;;;5071852;28;20106;-82
2023/08/13 06:54:32;;;;;;;8.45;6.53;;;20.80;99.90;;;;;;5072239;28;20378;-81
2023/08/13 06:56:59;;;;;;;7.40;6.38;;;21.10;99.90;;;;;;5072282;28;20027;-80
2023/08/13 06:59:24;;;;;;;7.80;5.78;;;21.40;99.90;;;;;;5073481;28;20477;-79
2023/08/13 07:01:50;;;;;;;7.05;6.43;;;21.60;99.80;;;;;;5071909;28;20059;-83
2023/08/13 07:04:16;;;;;;;6.55;5.90;;;21.70;99.90;;;;;;5072751;28;20021;-83
2023/08/13 07:06:41;;;;;;;7.22;6.22;;;21.80;99.90;;;;;;5072062;28;20016;-81
2023/08/13 07:09:07;;;;;;;6.65;6.05;;;21.80;94.30;;;;;;5072176;28;20033;-82
2023/08/13 07:11:33;;;;;;;6.30;5.80;;;21.70;95.40;;;;;;5073302;28;20049;-80
2023/08/13 07:13:59;;;;;;;6.95;5.72;;;21.80;95.40;;;;;;5071971;28;20044;-84
2023/08/13 07:16:24;;;;;;;6.10;5.43;;;22.00;97.70;;;;;;5071806;28;20052;-81
2023/08/13 07:18:50;;;;;;;6.15;5.63;;;22.00;93.40;;;;;;5070052;28;20024;-84
2023/08/13 07:21:16;;;;;;;6.78;6.07;;;22.10;91.60;;;;;;5080550;28;20094;-84
2023/08/13 07:23:42;;;;;;;7.30;5.60;;;22.10;91.20;;;;;;5079016;28;20482;-82
2023/08/13 07:26:07;;;;;;;6.10;5.22;;;22.20;89.90;;;;;;5071147;28;20017;-84
2023/08/13 07:28:34;;;;;;;6.43;5.78;;;22.40;90.10;;;;;;5071291;28;20020;-82
2023/08/13 07:31:03;;;;;;;8.13;5.32;;;22.60;87.80;;;;;;5072666;28;20115;-81
2023/08/13 07:33:33;;;;;;;7.32;5.45;;;22.60;87.60;;;;;;5071546;28;20029;-83
2023/08/13 07:36:03;;;;;;;5.93;5.43;;;22.70;88.30;;;;;;5071562;28;20513;-79
2023/08/13 07:38:28;;;;;;;6.25;4.97;;;22.80;85.50;;;;;;5072145;28;20046;-80
2023/08/13 07:40:58;;;;;;;6.38;5.13;;;23.10;86.90;;;;;;5070906;28;20549;-80
2023/08/13 07:43:24;;;;;;;5.45;4.95;;;23.20;86.80;;;;;;5072380;28;20047;-80
2023/08/13 07:45:50;;;;;;;6.13;5.15;;;23.30;84.70;;;;;;5071091;28;20382;-81
2023/08/13 07:48:16;;;;;;;5.20;4.47;;;23.30;81.30;;;;;;5070884;28;20028;-84
2023/08/13 07:50:42;;;;;;;7.45;5.13;;;23.30;80.70;;;;;;5071280;28;20020;-83
2023/08/13 07:53:08;;;;;;;5.28;4.78;;;23.40;84.00;;;;;;5072692;28;20095;-83
2023/08/13 07:55:33;;;;;;;7.03;5.22;;;23.30;83.20;;;;;;5071488;28;20035;-83
2023/08/13 07:57:59;;;;;;;7.43;5.10;;;23.20;83.10;;;;;;5063762;28;20494;-83
2023/08/13 08:00:26;;;;;;;7.95;5.82;;;23.20;81.20;;;;;;5063148;28;20435;-83
2023/08/13 08:02:53;;;;;;;5.85;5.25;;;23.10;82.00;;;;;;5069469;28;20041;-83
2023/08/13 08:05:19;;;;;;;7.55;5.60;;;23.00;82.00;;;;;;5068970;28;20028;-84
2023/08/13 08:07:45;;;;;;;5.78;5.10;;;23.10;83.60;;;;;;5066559;28;20452;-84
2023/08/13 08:10:11;;;;;;;6.15;4.88;;;23.30;89.30;;;;;;5070789;28;20040;-84
2023/08/13 08:12:37;;;;;;;6.63;5.25;;;23.40;87.50;;;;;;5052392;28;20132;-84
2023/08/13 08:15:06;;;;;;;5.72;5.22;;;23.60;85.80;;;;;;5069293;28;20468;-85
2023/08/13 08:17:33;;;;;;;6.32;4.97;;;23.60;82.00;;;;;;5071238;28;20094;-85
2023/08/13 08:19:59;;;;;;;6.78;4.75;;;23.60;82.20;;;;;;5071195;28;20107;-84
2023/08/13 08:22:26;;;;;;;5.97;5.18;;;23.60;79.20;;;;;;5070113;28;20119;-84
2023/08/13 08:24:52;;;;;;;5.13;4.57;;;23.70;81.80;;;;;;5069763;28;20021;-80
2023/08/13 08:27:17;;;;;;;6.38;4.93;;;23.60;80.40;;;;;;5070622;28;20036;-81
2023/08/13 08:29:43;;;;;;;5.28;4.65;;;23.60;80.80;;;;;;5076721;28;20036;-80
2023/08/13 08:32:08;;;;;;;6.55;5.18;;;23.60;81.30;;;;;;5075099;28;20044;-82
2023/08/13 08:34:34;;;;;;;8.80;4.75;;;23.50;83.50;;;;;;5072386;28;20020;-81
2023/08/13 08:37:00;;;;;;;5.57;4.75;;;23.40;78.50;;;;;;5072561;28;20036;-80
2023/08/13 08:39:25;;;;;;;7.68;5.28;;;23.50;80.40;;;;;;5063368;28;20074;-80
2023/08/13 08:41:56;;;;;;;5.22;4.82;;;23.60;81.40;;;;;;5086350;28;20035;-80
2023/08/13 08:44:22;;;;;;;5.68;5.07;;;23.60;80.90;;;;;;5088852;28;20020;-80
2023/08/13 08:46:53;;;;;;;5.57;5.07;;;23.60;81.60;;;;;;5075627;28;20394;-81
2023/08/13 08:49:21;;;;;;;7.70;5.32;;;23.70;81.20;;;;;;5079711;28;20029;-81
2023/08/13 08:51:48;;;;;;;6.50;5.18;;;23.80;80.90;;;;;;5084069;28;20111;-82
2023/08/13 08:54:14;;;;;;;5.97;5.38;;;23.90;79.70;;;;;;5091588;28;20032;-84
2023/08/13 08:56:40;;;;;;;9.30;6.43;;;24.00;81.50;;;;;;5085612;28;20025;-83
2023/08/13 08:59:06;;;;;;;8.25;6.43;;;23.90;81.70;;;;;;5086675;28;20028;-83
2023/08/13 09:01:33;;;;;;;11.25;7.57;;;24.00;78.50;;;;;;5083517;28;20016;-83
2023/08/13 09:03:59;;;;;;;9.40;7.15;;;24.00;78.50;;;;;;5088108;28;20031;-83
2023/08/13 09:06:57;;;;;;;10.52;7.05;;;24.20;79.90;;;;;;5072176;28;20074;-83
2023/08/13 09:09:24;;;;;;;11.30;7.38;;;24.40;77.70;;;;;;5073383;28;20040;-83
2023/08/13 09:11:51;;;;;;;8.30;6.63;;;24.40;77.10;;;;;;5084097;28;20135;-83
2023/08/13 09:14:17;;;;;;;12.63;6.55;;;24.60;78.30;;;;;;5082904;28;20047;-84
2023/08/13 09:16:47;;;;;;;11.43;7.63;;;24.90;77.60;;;;;;5076257;28;20021;-84
2023/08/13 09:19:14;;;;;;;11.10;6.85;;;25.10;77.50;;;;;;5082253;28;20107;-84
2023/08/13 09:21:47;;;;;;;13.75;7.65;;;25.30;75.10;;;;;;5081313;28;20394;-84
2023/08/13 09:24:13;;;;;;;9.68;7.32;;;25.50;75.30;;;;;;5076445;28;20040;-84
2023/08/13 09:26:38;;;;;;;8.15;6.85;;;25.70;73.40;;;;;;5080182;28;20074;-85
2023/08/13 09:29:08;;;;;;;12.98;7.80;;;25.90;74.90;;;;;;5088395;28;20036;-84
2023/08/13 09:31:34;;;;;;;11.10;7.95;;;25.80;71.00;;;;;;5078647;28;20670;-84
2023/08/13 09:34:01;;;;;;;10.38;7.55;;;25.70;70.00;;;;;;5080072;28;20025;-85
2023/08/13 09:36:27;;;;;;;12.80;8.20;;;25.50;69.30;;;;;;5070798;28;20158;-85
2023/08/13 09:38:53;;;;;;;12.38;8.30;;;25.70;73.30;;;;;;5072210;28;20525;-85
2023/08/13 09:41:20;;;;;;;12.05;7.63;;;25.90;73.30;;;;;;5071786;28;20111;-85
2023/08/13 09:43:49;;;;;;;11.73;7.20;;;26.00;72.50;;;;;;5071026;28;20024;-85
2023/08/13 09:46:21;;;;;;;10.98;6.50;;;26.00;70.80;;;;;;5076728;28;20020;-85
2023/08/13 09:48:49;;;;;;;13.45;6.70;;;26.10;68.90;;;;;;5088167;28;20058;-85
2023/08/13 09:51:21;;;;;;;11.85;6.60;;;26.20;69.00;;;;;;5090485;28;20035;-85
2023/08/13 09:53:52;;;;;;;11.68;6.80;;;26.40;68.40;;;;;;5088945;28;20093;-85
2023/08/13 09:56:19;;;;;;;14.60;7.30;;;26.50;68.10;;;;;;5092647;28;20020;-85
2023/08/13 09:58:45;;;;;;;11.93;7.28;;;26.50;67.90;;;;;;5090287;28;20100;-85
2023/08/13 10:01:13;;;;;;;8.02;5.40;;;26.50;68.30;;;;;;5092018;28;20048;-84
2023/08/13 10:03:39;;;;;;;7.97;4.40;;;26.70;68.30;;;;;;5093000;28;20024;-85
2023/08/13 10:06:06;;;;;;;7.38;5.43;;;26.50;64.60;;;;;;5092546;28;20024;-84
2023/08/13 10:08:32;;;;;;;8.50;6.65;;;26.30;65.50;;;;;;5091970;28;20030;-85
2023/08/13 10:10:59;;;;;;;9.43;5.88;;;26.50;69.30;;;;;;5091865;28;20036;-85
2023/08/13 10:13:25;;;;;;;9.27;6.13;;;26.70;69.30;;;;;;5090779;28;20012;-85
2023/08/13 10:15:50;;;;;;;6.82;5.97;;;26.60;64.70;;;;;;5082726;28;20106;-85
2023/08/13 10:18:17;;;;;;;9.20;5.63;;;26.70;65.00;;;;;;5090629;28;20063;-85
2023/08/13 10:20:46;;;;;;;8.35;6.30;;;27.00;68.10;;;;;;5094233;28;20043;-85
2023/08/13 10:23:12;;;;;;;8.80;6.40;;;27.10;67.40;;;;;;5092423;28;20020;-85
2023/08/13 10:25:39;;;;;;;12.43;6.90;;;27.10;67.00;;;;;;5094436;28;20023;-85
2023/08/13 10:28:27;;;;;;;10.77;6.90;;;27.00;65.20;;;;;;5093232;28;20047;-85
2023/08/13 10:31:23;;;;;;;15.73;6.80;;;27.00;66.60;;;;;;5093048;28;20488;-85
2023/08/13 10:34:06;;;;;;;7.97;6.30;;;26.80;66.20;;;;;;5078090;28;20036;-85
2023/08/13 10:36:49;;;;;;;11.02;6.90;;;26.90;67.40;;;;;;5087438;28;20071;-85
2023/08/13 10:39:35;;;;;;;10.80;6.22;;;27.10;67.20;;;;;;5089454;28;20020;-84
2023/08/13 10:42:22;;;;;;;9.13;6.25;;;27.30;67.10;;;;;;5082069;28;20024;-85
2023/08/13 10:44:48;;;;;;;8.57;5.93;;;27.40;66.10;;;;;;5073689;28;20038;-84
2023/08/13 10:47:13;;;;;;;9.85;6.40;;;27.50;65.80;;;;;;5073570;28;20103;-85
2023/08/13 10:49:41;;;;;;;10.10;6.53;;;27.70;66.40;;;;;;5073931;28;20068;-84
2023/08/13 10:52:06;;;;;;;9.30;6.13;;;27.40;63.10;;;;;;5072427;28;20029;-84
2023/08/13 10:54:33;;;;;;;8.98;5.57;;;27.50;64.30;;;;;;5072477;28;20020;-84
2023/08/13 10:57:00;;;;;;;8.68;5.95;;;27.70;64.70;;;;;;5073513;28;20482;-85
2023/08/13 10:59:37;;;;;;;7.75;5.57;;;27.70;63.50;;;;;;5072524;28;20016;-84
2023/08/13 11:02:19;;;;;;;6.95;4.93;;;27.80;63.50;;;;;;5073124;28;20477;-84
2023/08/13 11:04:46;;;;;;;5.55;4.97;;;27.80;62.80;;;;;;5073807;28;20029;-84
2023/08/13 11:07:13;;;;;;;6.57;4.60;;;27.80;62.00;;;;;;5074064;28;20074;-84
2023/08/13 11:09:40;;;;;;;7.45;5.03;;;27.90;61.70;;;;;;5072715;28;20033;-84
2023/08/13 11:12:08;;;;;;;5.72;4.55;;;27.90;61.50;;;;;;5073438;28;20020;-85
2023/08/13 11:14:35;;;;;;;8.13;5.38;;;28.00;61.50;;;;;;5072863;28;20136;-84
2023/08/13 11:17:01;;;;;;;11.60;6.43;;;28.20;62.60;;;;;;5071739;28;20028;-85
2023/08/13 11:19:30;;;;;;;9.93;5.93;;;28.00;59.60;;;;;;5081839;28;20024;-84
2023/08/13 11:21:59;;;;;;;10.40;5.15;;;28.10;61.30;;;;;;5082042;28;20042;-82
2023/08/13 11:24:25;;;;;;;8.93;4.68;;;28.10;60.10;;;;;;5069748;28;20537;-82
2023/08/13 11:26:52;;;;;;;4.80;3.53;;;28.20;59.60;;;;;;5087221;28;20107;-83
2023/08/13 11:29:21;;;;;;;7.40;3.72;;;28.20;58.80;;;;;;5091901;28;20081;-83
2023/08/13 11:31:48;;;;;;;4.25;3.33;;;27.90;56.50;;;;;;5092630;28;20020;-84
2023/08/13 11:34:18;;;;;;;4.82;3.40;;;28.10;58.80;;;;;;5088572;28;20107;-83
2023/08/13 11:36:45;;;;;;;4.03;3.40;;;28.10;57.00;;;;;;5079609;28;20104;-83
2023/08/13 11:39:12;;;;;;;6.97;4.60;;;28.20;59.00;;;;;;5082700;28;20485;-79
2023/08/13 11:41:38;;;;;;;7.90;5.20;;;28.30;58.80;;;;;;5078022;28;20369;-83
2023/08/13 11:44:06;;;;;;;7.22;5.47;;;28.30;58.10;;;;;;5079509;28;20020;-82
2023/08/13 11:46:55;;;;;;;7.80;5.35;;;28.10;58.20;;;;;;5079547;28;20023;-83
2023/08/13 11:49:20;;;;;;;8.10;4.88;;;28.00;59.90;;;;;;5078536;28;20025;-79
2023/08/13 11:51:46;;;;;;;7.88;5.20;;;28.20;58.90;;;;;;5082641;28;20034;-79
2023/08/13 11:54:12;;;;;;;6.63;5.10;;;28.30;60.30;;;;;;5076989;28;20656;-80
2023/08/13 11:56:40;;;;;;;7.45;5.03;;;28.40;58.80;;;;;;5076081;28;20024;-79
2023/08/13 11:59:06;;;;;;;6.32;4.32;;;28.50;58.80;;;;;;5071589;28;20024;-83
2023/08/13 12:01:34;;;;;;;9.00;5.13;;;28.50;58.80;;;;;;5071856;28;20024;-79
2023/08/13 12:04:05;;;;;;;8.00;5.38;;;28.50;59.80;;;;;;5070681;28;20028;-83
2023/08/13 12:06:34;;;;;;;9.60;4.80;;;28.60;59.60;;;;;;5060046;28;20009;-79
2023/08/13 12:09:00;;;;;;;10.68;5.35;;;28.50;58.90;;;;;;5072176;28;20440;-79
2023/08/13 12:11:25;;;;;;;8.00;4.85;;;28.40;59.20;;;;;;5071332;28;20028;-83
2023/08/13 12:13:51;;;;;;;5.95;4.93;;;28.60;60.30;;;;;;5071937;28;20029;-82
2023/08/13 12:16:16;;;;;;;6.00;4.97;;;28.70;60.30;;;;;;5072588;28;20075;-82
2023/08/13 12:18:42;;;;;;;7.68;5.10;;;28.60;59.10;;;;;;5059376;28;20017;-82
2023/08/13 12:21:08;;;;;;;9.90;6.97;;;28.60;57.80;;;;;;5070929;28;20023;-82
2023/08/13 12:23:34;;;;;;;10.52;6.75;;;28.70;58.80;;;;;;5071018;28;20458;-79
2023/08/13 12:26:01;;;;;;;10.38;5.78;;;28.70;58.70;;;;;;5072243;28;20032;-83
2023/08/13 12:28:27;;;;;;;12.40;5.55;;;28.90;58.60;;;;;;5074690;28;20477;-80
2023/08/13 12:30:53;;;;;;;12.10;5.30;;;28.80;57.80;;;;;;5076142;28;20082;-83
2023/08/13 12:33:19;;;;;;;5.32;4.75;;;28.90;59.50;;;;;;5076389;28;20017;-83
2023/08/13 12:35:44;;;;;;;5.40;4.90;;;28.90;57.00;;;;;;5076181;28;20016;-84
2023/08/13 12:38:10;;;;;;;5.88;3.88;;;29.00;57.90;;;;;;5076194;28;20527;-79
2023/08/13 12:40:36;;;;;;;5.47;3.90;;;29.10;58.20;;;;;;5074688;28;20063;-85
2023/08/13 12:43:02;;;;;;;8.20;4.63;;;29.20;57.50;;;;;;5074667;28;20477;-80